TimeCST,TemperatureF,Dew PointF,Humidity,Sea Level PressureIn,VisibilityMPH,Wind Direction,Wind SpeedMPH,Gust SpeedMPH,PrecipitationIn,Events,Conditions,WindDirDegrees,DateUTC
12:15 AM,30.2,21.2,69,30.15,10.0,SSE,3.5,-,N/A,,Clear,160,2012-12-14 06:15:00
12:35 AM,28.4,19.4,69,30.15,10.0,SSE,4.6,-,N/A,,Clear,160,2012-12-14 06:35:00
12:55 AM,28.4,21.2,74,30.14,10.0,SSE,4.6,-,N/A,,Clear,150,2012-12-14 06:55:00
1:15 AM,28.4,19.4,69,30.15,10.0,South,5.8,-,N/A,,Clear,170,2012-12-14 07:15:00
1:35 AM,30.2,23.0,75,30.16,10.0,South,5.8,-,N/A,,Clear,170,2012-12-14 07:35:00
1:55 AM,28.4,21.2,74,30.16,10.0,SSE,4.6,-,N/A,,Clear,160,2012-12-14 07:55:00
2:15 AM,28.4,21.2,74,30.16,10.0,SSE,4.6,-,N/A,,Clear,150,2012-12-14 08:15:00
2:35 AM,26.6,21.2,80,30.17,10.0,SSE,4.6,-,N/A,,Clear,160,2012-12-14 08:35:00
2:55 AM,26.6,21.2,80,30.17,10.0,SSE,4.6,-,N/A,,Clear,150,2012-12-14 08:55:00
3:15 AM,24.8,17.6,74,30.17,10.0,ESE,4.6,-,N/A,,Clear,110,2012-12-14 09:15:00
3:35 AM,21.2,17.6,86,30.16,10.0,ESE,3.5,-,N/A,,Clear,110,2012-12-14 09:35:00
3:55 AM,23.0,19.4,86,30.16,10.0,ESE,3.5,-,N/A,,Clear,110,2012-12-14 09:55:00
4:15 AM,21.2,17.6,86,30.15,10.0,ESE,4.6,-,N/A,,Clear,120,2012-12-14 10:15:00
4:35 AM,21.2,17.6,86,30.15,10.0,SE,4.6,-,N/A,,Clear,130,2012-12-14 10:35:00
4:55 AM,21.2,17.6,86,30.15,10.0,ESE,3.5,-,N/A,,Clear,120,2012-12-14 10:55:00
5:15 AM,21.2,17.6,86,30.15,10.0,East,5.8,-,N/A,,Clear,80,2012-12-14 11:15:00
5:35 AM,21.2,17.6,86,30.14,10.0,East,5.8,-,N/A,,Clear,80,2012-12-14 11:35:00
5:55 AM,21.2,17.6,86,30.15,10.0,ESE,4.6,-,N/A,,Clear,120,2012-12-14 11:55:00
6:15 AM,21.2,17.6,86,30.15,10.0,East,5.8,-,N/A,,Clear,100,2012-12-14 12:15:00
6:35 AM,21.2,15.8,80,30.16,10.0,East,5.8,-,N/A,,Clear,80,2012-12-14 12:35:00
6:55 AM,19.4,15.8,86,30.16,10.0,ENE,6.9,-,N/A,,Clear,70,2012-12-14 12:55:00
7:15 AM,21.2,17.6,86,30.16,10.0,East,5.8,-,N/A,,Clear,90,2012-12-14 13:15:00
7:35 AM,21.2,17.6,86,30.16,10.0,East,5.8,-,N/A,,Clear,80,2012-12-14 13:35:00
7:55 AM,21.2,17.6,86,30.17,10.0,East,5.8,-,N/A,,Clear,80,2012-12-14 13:55:00
8:15 AM,24.8,21.2,86,30.18,10.0,East,5.8,-,N/A,,Clear,80,2012-12-14 14:15:00
8:35 AM,26.6,23.0,86,30.18,10.0,East,5.8,-,N/A,,Clear,80,2012-12-14 14:35:00
8:55 AM,28.4,24.8,86,30.17,10.0,East,5.8,-,N/A,,Clear,80,2012-12-14 14:55:00
9:15 AM,32.0,26.6,80,30.17,10.0,ESE,5.8,-,N/A,,Clear,120,2012-12-14 15:15:00
9:35 AM,35.6,26.6,70,30.17,10.0,ESE,4.6,-,N/A,,Clear,110,2012-12-14 15:35:00
9:55 AM,37.4,26.6,65,30.17,10.0,SE,4.6,-,N/A,,Clear,140,2012-12-14 15:55:00
10:15 AM,37.4,26.6,65,30.18,10.0,SSE,6.9,-,N/A,,Clear,150,2012-12-14 16:15:00
10:35 AM,37.4,26.6,65,30.17,10.0,SSE,6.9,-,N/A,,Clear,160,2012-12-14 16:35:00
10:55 AM,39.2,26.6,61,30.15,10.0,SSE,5.8,-,N/A,,Clear,150,2012-12-14 16:55:00
11:15 AM,41.0,26.6,57,30.14,10.0,SE,6.9,-,N/A,,Clear,140,2012-12-14 17:15:00
11:35 AM,42.8,26.6,53,30.14,10.0,SSE,5.8,-,N/A,,Clear,150,2012-12-14 17:35:00
11:55 AM,42.8,26.6,53,30.12,10.0,SE,8.1,-,N/A,,Clear,140,2012-12-14 17:55:00
12:15 PM,44.6,26.6,49,30.10,10.0,SE,8.1,-,N/A,,Clear,130,2012-12-14 18:15:00
12:35 PM,46.4,28.4,50,30.10,10.0,SE,9.2,-,N/A,,Clear,140,2012-12-14 18:35:00
12:55 PM,46.4,28.4,50,30.09,10.0,SSE,8.1,-,N/A,,Clear,150,2012-12-14 18:55:00
1:15 PM,46.4,28.4,50,30.08,10.0,SE,8.1,-,N/A,,Clear,130,2012-12-14 19:15:00
1:35 PM,48.2,28.4,46,30.07,10.0,ESE,10.4,-,N/A,,Clear,120,2012-12-14 19:35:00
1:55 PM,48.2,28.4,46,30.07,10.0,SE,9.2,-,N/A,,Clear,140,2012-12-14 19:55:00
2:15 PM,48.2,28.4,46,30.06,10.0,SSE,11.5,-,N/A,,Clear,150,2012-12-14 20:15:00
2:35 PM,48.2,28.4,46,30.06,10.0,SE,12.7,-,N/A,,Clear,140,2012-12-14 20:35:00
2:55 PM,46.4,28.4,50,30.05,10.0,SE,12.7,-,N/A,,Clear,140,2012-12-14 20:55:00
3:15 PM,46.4,28.4,50,30.05,10.0,SE,11.5,-,N/A,,Clear,140,2012-12-14 21:15:00
3:35 PM,46.4,28.4,50,30.05,10.0,SE,11.5,-,N/A,,Clear,140,2012-12-14 21:35:00
4:15 PM,42.8,28.4,57,30.06,10.0,SE,11.5,-,N/A,,Clear,140,2012-12-14 22:15:00
4:35 PM,42.8,28.4,57,30.04,10.0,ESE,10.4,-,N/A,,Clear,120,2012-12-14 22:35:00
4:55 PM,42.8,28.4,57,30.04,10.0,SE,10.4,-,N/A,,Clear,130,2012-12-14 22:55:00
5:15 PM,42.8,28.4,57,30.05,10.0,ESE,12.7,-,N/A,,Clear,120,2012-12-14 23:15:00
5:35 PM,41.0,28.4,61,30.04,10.0,ESE,11.5,-,N/A,,Clear,120,2012-12-14 23:35:00
5:55 PM,39.2,28.4,65,30.04,10.0,ESE,12.7,-,N/A,,Clear,120,2012-12-14 23:55:00
6:15 PM,41.0,28.4,61,30.04,10.0,ESE,12.7,-,N/A,,Clear,120,2012-12-15 00:15:00
6:35 PM,41.0,28.4,61,30.03,10.0,ESE,12.7,-,N/A,,Clear,120,2012-12-15 00:35:00
6:55 PM,42.8,28.4,57,30.03,10.0,ESE,12.7,-,N/A,,Partly Cloudy,120,2012-12-15 00:55:00
7:15 PM,42.8,30.2,61,30.03,10.0,SE,15.0,20.7,N/A,,Mostly Cloudy,130,2012-12-15 01:15:00
7:55 PM,44.6,30.2,57,30.02,10.0,SE,13.8,-,N/A,,Mostly Cloudy,140,2012-12-15 01:55:00
8:15 PM,42.8,30.2,61,30.01,10.0,SE,13.8,-,N/A,,Partly Cloudy,140,2012-12-15 02:15:00
8:35 PM,42.8,32.0,66,30.01,10.0,SE,12.7,-,N/A,,Partly Cloudy,140,2012-12-15 02:35:00
8:55 PM,44.6,32.0,61,30.00,10.0,SSE,12.7,-,N/A,,Scattered Clouds,150,2012-12-15 02:55:00
9:15 PM,44.6,33.8,66,30.00,10.0,SSE,13.8,-,N/A,,Overcast,150,2012-12-15 03:15:00
9:35 PM,44.6,33.8,66,29.99,10.0,SSE,13.8,-,N/A,,Overcast,150,2012-12-15 03:35:00
9:55 PM,44.6,33.8,66,29.99,10.0,SE,12.7,-,N/A,,Overcast,140,2012-12-15 03:55:00
10:15 PM,44.6,33.8,66,29.98,10.0,SE,16.1,-,N/A,,Overcast,140,2012-12-15 04:15:00
10:35 PM,44.6,32.0,61,29.97,10.0,SE,13.8,-,N/A,,Mostly Cloudy,140,2012-12-15 04:35:00
10:55 PM,44.6,33.8,66,29.98,10.0,SSE,15.0,-,N/A,,Overcast,150,2012-12-15 04:55:00
11:15 PM,44.6,33.8,66,29.97,10.0,SE,13.8,-,N/A,,Overcast,140,2012-12-15 05:15:00
11:35 PM,42.8,35.6,76,29.97,8.0,SE,12.7,-,0.02,,Overcast,140,2012-12-15 05:35:00
11:55 PM,41.0,35.6,81,29.97,9.0,SSE,11.5,-,0.08,,Overcast,150,2012-12-15 05:55:00